Time;durP1;ratioP1;P1;durP2;ratioP2;P2;SDS_P1;SDS_P2;PMS_P1;PMS_P2;Temp;Humidity;BMP_temperature;BMP_pressure;BME280_temperature;BME280_humidity;BME280_pressure;Samples;Min_cycle;Max_cycle;Signal;HPM_P1;HPM_P2
2023/07/09 00:09:58;;;;;;;7.18;4.13;;;;;;;;;;20922629;28;20087;-70
2023/07/09 00:19:59;;;;;;;29.58;21.85;;;;;;;;;;20922990;28;20052;-69
2023/07/09 00:30:00;;;;;;;5.50;3.03;;;;;;;;;;20922246;28;20041;-70
2023/07/09 00:40:01;;;;;;;6.63;3.13;;;;;;;;;;20921836;28;20045;-70
2023/07/09 00:50:09;;;;;;;9.45;3.15;;;;;;;;;;20921096;28;20505;-70
2023/07/09 01:00:14;;;;;;;10.07;3.38;;;;;;;;;;20920393;28;20048;-70
2023/07/09 01:10:18;;;;;;;13.93;3.30;;;;;;;;;;20918325;28;20045;-70
2023/07/09 01:20:20;;;;;;;9.60;3.53;;;;;;;;;;20918291;28;20422;-70
2023/07/09 01:30:24;;;;;;;11.63;3.42;;;;;;;;;;20918190;28;20102;-70
2023/07/09 01:40:27;;;;;;;7.25;3.15;;;;;;;;;;20917203;28;20041;-70
2023/07/09 01:50:28;;;;;;;7.18;2.95;;;;;;;;;;20915830;28;20044;-70
2023/07/09 02:00:29;;;;;;;9.88;2.65;;;;;;;;;;20915740;28;20049;-70
2023/07/09 02:10:31;;;;;;;5.85;2.65;;;;;;;;;;20915004;28;20041;-70
2023/07/09 02:20:32;;;;;;;12.55;3.95;;;;;;;;;;20913152;28;20045;-71
2023/07/09 02:30:33;;;;;;;7.70;2.90;;;;;;;;;;20912779;28;20049;-70
2023/07/09 02:40:34;;;;;;;9.77;3.15;;;;;;;;;;20913723;28;20041;-70
2023/07/09 02:50:36;;;;;;;10.73;5.07;;;;;;;;;;20913199;28;20091;-70
2023/07/09 03:00:37;;;;;;;5.57;2.50;;;;;;;;;;20925729;28;20067;-70
2023/07/09 03:10:38;;;;;;;6.20;2.42;;;;;;;;;;20928869;28;20090;-71
2023/07/09 03:20:39;;;;;;;4.10;2.55;;;;;;;;;;20927797;28;20061;-71
2023/07/09 03:30:41;;;;;;;8.35;2.60;;;;;;;;;;20926360;28;20049;-71
2023/07/09 03:40:42;;;;;;;5.75;2.42;;;;;;;;;;20925380;28;20045;-71
2023/07/09 03:50:45;;;;;;;6.40;3.08;;;;;;;;;;20925805;28;20048;-70
2023/07/09 04:00:46;;;;;;;7.53;2.90;;;;;;;;;;20923511;28;20132;-70
2023/07/09 04:10:47;;;;;;;5.72;2.75;;;;;;;;;;20922226;28;20127;-70
2023/07/09 04:20:49;;;;;;;10.02;2.75;;;;;;;;;;20923110;28;20506;-70
2023/07/09 04:30:51;;;;;;;6.95;2.75;;;;;;;;;;20921623;28;20057;-71
2023/07/09 04:40:52;;;;;;;9.15;3.10;;;;;;;;;;20920867;28;20049;-70
2023/07/09 04:50:53;;;;;;;9.15;2.97;;;;;;;;;;20921468;28;20116;-71
2023/07/09 05:00:57;;;;;;;9.05;3.03;;;;;;;;;;20920561;28;20402;-71
2023/07/09 05:10:59;;;;;;;9.07;3.08;;;;;;;;;;20919542;28;20119;-70
2023/07/09 05:21:00;;;;;;;4.43;2.58;;;;;;;;;;20918015;28;20135;-71
2023/07/09 05:31:01;;;;;;;4.65;2.28;;;;;;;;;;20916960;28;20436;-70
2023/07/09 05:41:05;;;;;;;6.03;2.42;;;;;;;;;;20916393;28;20045;-70
2023/07/09 05:51:06;;;;;;;7.65;2.60;;;;;;;;;;20915795;28;20056;-71
2023/07/09 06:01:07;;;;;;;5.68;2.70;;;;;;;;;;20915477;28;20048;-71
2023/07/09 06:11:08;;;;;;;8.77;3.22;;;;;;;;;;20914648;28;20124;-70
2023/07/09 06:21:11;;;;;;;4.72;2.50;;;;;;;;;;20913577;28;20056;-70
2023/07/09 06:31:12;;;;;;;6.50;2.83;;;;;;;;;;20913171;28;20044;-71
2023/07/09 06:41:14;;;;;;;5.38;2.80;;;;;;;;;;20912740;28;20533;-70
2023/07/09 06:51:16;;;;;;;9.18;3.05;;;;;;;;;;20912493;28;20499;-70
2023/07/09 07:01:17;;;;;;;5.60;2.40;;;;;;;;;;20912287;28;20052;-70
2023/07/09 07:11:18;;;;;;;7.25;3.10;;;;;;;;;;20912043;28;20041;-70
2023/07/09 07:21:19;;;;;;;6.32;2.75;;;;;;;;;;20910791;28;20124;-70
2023/07/09 07:31:20;;;;;;;6.25;2.63;;;;;;;;;;20910806;28;20414;-71
2023/07/09 07:41:21;;;;;;;13.50;10.07;;;;;;;;;;20912731;28;20501;-69
2023/07/09 07:51:23;;;;;;;8.32;3.47;;;;;;;;;;20924781;28;20457;-70
2023/07/09 08:01:24;;;;;;;7.60;4.05;;;;;;;;;;20923904;28;20508;-73
2023/07/09 08:11:27;;;;;;;8.73;3.53;;;;;;;;;;20922733;28;20045;-72
2023/07/09 08:21:29;;;;;;;7.53;3.40;;;;;;;;;;20921522;28;20060;-73
2023/07/09 08:31:30;;;;;;;11.50;3.60;;;;;;;;;;20921706;28;20048;-72
2023/07/09 08:41:40;;;;;;;7.60;3.45;;;;;;;;;;20920643;28;20398;-72
2023/07/09 08:51:43;;;;;;;9.32;4.82;;;;;;;;;;20919840;28;20071;-72
2023/07/09 09:01:59;;;;;;;6.95;3.42;;;;;;;;;;20918427;28;20197;-73
2023/07/09 09:12:04;;;;;;;17.98;5.97;;;;;;;;;;20918755;28;20041;-72
2023/07/09 09:22:10;;;;;;;11.00;3.57;;;;;;;;;;20917050;28;20429;-72
2023/07/09 09:32:17;;;;;;;6.37;3.33;;;;;;;;;;20917698;28;20131;-72
2023/07/09 09:42:18;;;;;;;11.93;5.43;;;;;;;;;;20916270;28;20059;-72
2023/07/09 09:52:19;;;;;;;5.97;3.17;;;;;;;;;;20916011;28;20047;-72
2023/07/09 10:02:22;;;;;;;9.02;2.55;;;;;;;;;;20915071;28;20063;-71
2023/07/09 10:12:30;;;;;;;5.18;3.13;;;;;;;;;;20914330;28;20051;-72
2023/07/09 10:22:47;;;;;;;4.55;2.78;;;;;;;;;;20913645;28;20056;-73
2023/07/09 10:32:51;;;;;;;6.47;2.85;;;;;;;;;;20914282;28;20116;-73
2023/07/09 10:42:56;;;;;;;7.00;3.22;;;;;;;;;;20911950;28;20106;-73
2023/07/09 10:52:59;;;;;;;5.50;3.25;;;;;;;;;;20913134;28;20406;-72
2023/07/09 11:03:02;;;;;;;6.72;3.28;;;;;;;;;;20911133;28;20041;-71
2023/07/09 11:13:11;;;;;;;7.30;3.20;;;;;;;;;;20911678;28;20116;-71
2023/07/09 11:23:20;;;;;;;6.35;3.17;;;;;;;;;;20926091;28;20052;-70
2023/07/09 11:33:27;;;;;;;6.00;2.88;;;;;;;;;;20927350;28;20059;-71
2023/07/09 11:43:31;;;;;;;4.65;2.42;;;;;;;;;;20926648;28;20045;-70
2023/07/09 11:53:42;;;;;;;8.18;3.20;;;;;;;;;;20924688;28;20040;-71
2023/07/09 12:03:44;;;;;;;6.07;2.65;;;;;;;;;;20924435;28;20174;-71
2023/07/09 12:13:45;;;;;;;4.47;2.75;;;;;;;;;;20924169;28;20091;-71
2023/07/09 12:23:46;;;;;;;4.05;2.38;;;;;;;;;;20922038;28;20057;-72
2023/07/09 12:33:49;;;;;;;4.85;2.75;;;;;;;;;;20919783;28;20053;-71
2023/07/09 12:43:51;;;;;;;4.82;2.17;;;;;;;;;;20921639;28;20500;-71
2023/07/09 12:54:03;;;;;;;3.45;2.22;;;;;;;;;;20920537;28;20037;-71
2023/07/09 13:04:04;;;;;;;4.18;2.58;;;;;;;;;;20919931;28;20056;-71
2023/07/09 13:14:06;;;;;;;5.00;2.55;;;;;;;;;;20919103;28;20613;-70
2023/07/09 13:24:15;;;;;;;3.70;2.15;;;;;;;;;;20918483;28;20132;-72
2023/07/09 13:34:24;;;;;;;6.88;2.20;;;;;;;;;;20917514;28;20060;-72
2023/07/09 13:44:27;;;;;;;5.00;1.83;;;;;;;;;;20915836;28;20041;-71
2023/07/09 13:54:37;;;;;;;4.38;1.70;;;;;;;;;;20914160;28;20049;-71
2023/07/09 14:04:38;;;;;;;4.32;1.90;;;;;;;;;;20912994;28;20048;-71
2023/07/09 14:14:42;;;;;;;2.70;1.63;;;;;;;;;;20912759;28;20052;-71
2023/07/09 14:24:44;;;;;;;4.30;1.50;;;;;;;;;;20913148;28;20494;-70
2023/07/09 14:34:45;;;;;;;2.67;1.23;;;;;;;;;;20913505;28;20072;-70
2023/07/09 14:44:46;;;;;;;3.70;1.48;;;;;;;;;;20913130;28;20452;-71
2023/07/09 14:54:47;;;;;;;3.25;1.20;;;;;;;;;;20922570;28;20099;-72
2023/07/09 15:04:49;;;;;;;3.47;2.22;;;;;;;;;;20929349;28;20053;-70
2023/07/09 15:14:50;;;;;;;3.08;1.38;;;;;;;;;;20928768;28;20410;-70
2023/07/09 15:24:51;;;;;;;4.68;2.05;;;;;;;;;;20926985;28;20498;-70
2023/07/09 15:34:52;;;;;;;3.83;1.80;;;;;;;;;;20925890;28;20060;-69
2023/07/09 15:44:53;;;;;;;3.03;1.80;;;;;;;;;;20925412;28;20070;-69
2023/07/09 15:54:55;;;;;;;4.10;2.33;;;;;;;;;;20924627;28;20048;-71
2023/07/09 16:04:56;;;;;;;3.78;1.70;;;;;;;;;;20923918;28;20049;-71
2023/07/09 16:14:57;;;;;;;2.88;1.65;;;;;;;;;;20924083;28;20105;-71
2023/07/09 16:24:58;;;;;;;3.38;1.52;;;;;;;;;;20922089;28;20535;-70
2023/07/09 16:34:59;;;;;;;4.45;1.30;;;;;;;;;;20923255;28;20048;-71
2023/07/09 16:45:00;;;;;;;2.40;1.15;;;;;;;;;;20922060;28;20041;-71
2023/07/09 16:55:01;;;;;;;3.28;1.30;;;;;;;;;;20921684;28;20053;-71
2023/07/09 17:05:06;;;;;;;2.70;1.40;;;;;;;;;;20920458;28;20048;-71
2023/07/09 17:15:07;;;;;;;;;;;;;;;;;;20920407;28;20045;-71
2023/07/09 17:25:27;;;;;;;2.28;1.10;;;;;;;;;;20918545;28;19927;-70
2023/07/09 17:35:28;;;;;;;3.03;1.27;;;;;;;;;;20916448;28;20048;-70
2023/07/09 17:45:29;;;;;;;3.40;1.30;;;;;;;;;;20916984;28;20394;-71
2023/07/09 17:55:31;;;;;;;2.88;1.52;;;;;;;;;;20916786;28;20420;-71
2023/07/09 18:05:33;;;;;;;4.72;1.55;;;;;;;;;;20915146;28;20493;-71
2023/07/09 18:15:34;;;;;;;6.18;1.98;;;;;;;;;;20915072;28;20044;-71
2023/07/09 18:25:38;;;;;;;5.10;1.67;;;;;;;;;;20913952;28;20084;-71
2023/07/09 18:35:39;;;;;;;3.67;2.60;;;;;;;;;;20912595;28;20056;-71
2023/07/09 18:45:40;;;;;;;5.35;1.83;;;;;;;;;;20913609;28;20041;-71
2023/07/09 18:55:41;;;;;;;5.15;2.50;;;;;;;;;;20911509;28;20056;-71
2023/07/09 19:05:46;;;;;;;5.38;2.10;;;;;;;;;;20912636;28;20459;-72
2023/07/09 19:15:47;;;;;;;5.53;1.92;;;;;;;;;;20912226;28;20433;-71
2023/07/09 19:25:49;;;;;;;2.50;2.08;;;;;;;;;;20911055;28;20056;-71
2023/07/09 19:35:50;;;;;;;3.13;2.00;;;;;;;;;;20911549;28;20080;-71
2023/07/09 19:45:52;;;;;;;2.55;1.73;;;;;;;;;;20926322;28;20478;-70
2023/07/09 19:55:53;;;;;;;3.17;1.98;;;;;;;;;;20925786;28;20375;-72
2023/07/09 20:05:55;;;;;;;4.22;2.53;;;;;;;;;;20924876;28;20057;-71
2023/07/09 20:15:56;;;;;;;4.15;2.50;;;;;;;;;;20922868;28;20053;-71
2023/07/09 20:25:57;;;;;;;6.55;2.80;;;;;;;;;;20923488;28;20048;-72
2023/07/09 20:35:59;;;;;;;5.20;3.33;;;;;;;;;;20922375;28;20044;-72
2023/07/09 20:46:00;;;;;;;5.32;2.58;;;;;;;;;;20921568;28;20502;-72
2023/07/09 20:56:01;;;;;;;5.55;2.42;;;;;;;;;;20920315;28;20537;-72
2023/07/09 21:06:02;;;;;;;6.00;2.40;;;;;;;;;;20920225;28;20049;-71
2023/07/09 21:16:12;;;;;;;3.97;2.58;;;;;;;;;;20919318;28;20045;-71
2023/07/09 21:26:15;;;;;;;5.13;3.00;;;;;;;;;;20917766;28;20130;-71
2023/07/09 21:36:16;;;;;;;4.50;2.70;;;;;;;;;;20917496;28;20057;-71
2023/07/09 21:46:25;;;;;;;5.88;3.35;;;;;;;;;;20916454;28;20203;-72
2023/07/09 21:56:26;;;;;;;6.68;2.22;;;;;;;;;;20916168;28;20053;-72
2023/07/09 22:06:27;;;;;;;3.85;2.40;;;;;;;;;;20914950;28;20080;-72
2023/07/09 22:16:28;;;;;;;5.20;2.00;;;;;;;;;;20915383;28;20041;-71
2023/07/09 22:26:31;;;;;;;5.28;2.50;;;;;;;;;;20913605;28;20060;-71
2023/07/09 22:36:32;;;;;;;5.57;2.35;;;;;;;;;;20914171;28;20083;-72
2023/07/09 22:46:34;;;;;;;2.97;1.60;;;;;;;;;;20913754;28;20045;-72
2023/07/09 22:56:35;;;;;;;4.57;1.90;;;;;;;;;;20912174;28;20095;-72
2023/07/09 23:06:37;;;;;;;5.43;2.05;;;;;;;;;;20911618;28;20052;-72
2023/07/09 23:16:38;;;;;;;3.55;1.83;;;;;;;;;;20923811;28;20049;-71
2023/07/09 23:26:45;;;;;;;5.30;1.95;;;;;;;;;;20927939;28;20048;-72
2023/07/09 23:36:47;;;;;;;6.60;2.22;;;;;;;;;;20927772;28;20045;-72
2023/07/09 23:46:48;;;;;;;3.90;1.85;;;;;;;;;;20926778;28;20478;-71
2023/07/09 23:56:50;;;;;;;5.97;2.20;;;;;;;;;;20926924;28;20087;-73
